Terminal Aerodrome Forecast
Issued by NWS

Home | Current Version | Previous Version | Text Only | Print | Product List | Glossary On
Versions: 1 2 3 4 5 6 7 8 9 10 11 12 13 14 15 16 17 18 19 20 21 22
141
FTUS46 KMFR 221132
TAFRBG
TAF
KRBG 221132Z 2212/2312 VRB03KT 5SM -SHRA SCT006 SCT010 OVC020
     FM221400 00000KT 4SM -SHRA BR SCT006 BKN010 OVC020
     FM221800 03002KT 5SM -SHRA BR BKN012 OVC030
     FM222000 32002KT P6SM -SHRA BKN020 OVC030
     FM230000 32006KT P6SM -SHRA BKN030 OVC040
     FM230600 VRB03KT 4SM BR VCSH SCT008 OVC020=

USA.gov is the U.S. government's official web portal to all federal, state and local government web resources and services.